createdAt,value
2019-06-18T00:02:20.975Z,3.10
2019-06-18T00:04:52.057Z,3.10
2019-06-18T00:07:22.521Z,2.90
2019-06-18T00:09:53.192Z,2.80
2019-06-18T00:12:23.672Z,3.90
2019-06-18T00:14:54.396Z,3.13
2019-06-18T00:17:24.931Z,3.57
2019-06-18T00:19:55.539Z,3.27
2019-06-18T00:22:26.401Z,3.27
2019-06-18T00:24:56.815Z,3.27
2019-06-18T00:27:27.377Z,2.80
2019-06-18T00:29:57.875Z,3.00
2019-06-18T00:32:30.475Z,3.20
2019-06-18T00:35:01.007Z,3.30
2019-06-18T00:37:31.770Z,3.77
2019-06-18T00:40:02.214Z,3.10
2019-06-18T00:42:32.755Z,3.50
2019-06-18T00:45:03.238Z,3.10
2019-06-18T00:47:33.700Z,3.37
2019-06-18T00:50:07.032Z,3.40
2019-06-18T00:52:36.662Z,3.60
2019-06-18T00:55:07.967Z,3.20
2019-06-18T00:57:38.427Z,3.80
2019-06-18T01:00:09.863Z,2.90
2019-06-18T01:02:41.654Z,3.53
2019-06-18T01:05:12.584Z,3.53
2019-06-18T01:07:42.995Z,3.20
2019-06-18T01:10:16.697Z,3.80
2019-06-18T01:12:47.171Z,3.50
2019-06-18T01:15:18.296Z,3.73
2019-06-18T01:17:48.734Z,3.63
2019-06-18T01:20:19.412Z,3.93
2019-06-18T01:22:49.968Z,3.83
2019-06-18T01:25:22.424Z,3.67
2019-06-18T01:27:53.057Z,5.03
2019-06-18T01:30:24.369Z,3.83
2019-06-18T01:32:54.822Z,3.70
2019-06-18T01:35:25.348Z,3.30
2019-06-18T01:37:55.811Z,4.23
2019-06-18T01:40:26.281Z,3.33
2019-06-18T01:42:59.198Z,3.83
2019-06-18T01:45:29.197Z,3.33
2019-06-18T01:48:02.235Z,4.13
2019-06-18T01:50:32.992Z,3.70
2019-06-18T01:53:04.191Z,5.10
2019-06-18T01:55:34.667Z,3.70
2019-06-18T01:58:05.127Z,3.80
2019-06-18T02:00:36.285Z,4.00
2019-06-18T02:03:06.711Z,3.93
2019-06-18T02:05:37.166Z,4.50
2019-06-18T02:08:07.615Z,4.00
2019-06-18T02:10:38.082Z,3.70
2019-06-18T02:13:08.488Z,4.00
2019-06-18T02:15:39.027Z,3.80
2019-06-18T02:18:09.412Z,3.30
2019-06-18T02:20:50.838Z,4.37
2019-06-18T02:23:15.411Z,4.60
2019-06-18T02:25:46.061Z,4.10
2019-06-18T02:28:16.517Z,5.27
2019-06-18T02:30:46.974Z,4.30
2019-06-18T02:33:17.412Z,4.43
2019-06-18T02:35:47.862Z,5.07
2019-06-18T02:38:18.432Z,4.40
2019-06-18T02:40:49.094Z,4.40
2019-06-18T02:43:22.174Z,4.20
2019-06-18T02:45:53.577Z,3.93
2019-06-18T02:48:24.080Z,4.30
2019-06-18T02:50:54.642Z,3.97
2019-06-18T02:53:25.108Z,3.90
2019-06-18T02:55:55.574Z,4.13
2019-06-18T02:58:26.022Z,4.57
2019-06-18T03:01:15.776Z,4.40
2019-06-18T03:03:46.173Z,3.67
2019-06-18T03:06:17.147Z,4.60
2019-06-18T03:08:47.649Z,3.90
2019-06-18T03:11:22.612Z,4.13
2019-06-18T03:13:53.116Z,4.07
2019-06-18T03:16:23.845Z,5.07
2019-06-18T03:18:54.256Z,4.50
2019-06-18T03:21:24.701Z,4.70
2019-06-18T03:23:55.163Z,4.57
2019-06-18T03:26:25.572Z,4.30
2019-06-18T03:28:56.023Z,4.63
2019-06-18T03:31:28.339Z,4.67
2019-06-18T03:34:14.617Z,5.07
2019-06-18T03:36:38.451Z,4.50
2019-06-18T03:39:09.363Z,4.20
2019-06-18T03:41:39.794Z,4.40
2019-06-18T03:44:12.629Z,4.43
2019-06-18T03:46:42.985Z,4.60
2019-06-18T03:49:13.681Z,3.90
2019-06-18T03:51:44.067Z,4.37
2019-06-18T03:54:15.134Z,4.27
2019-06-18T03:56:45.651Z,4.30
2019-06-18T03:59:16.413Z,5.80
2019-06-18T04:01:46.822Z,4.07
2019-06-18T04:04:17.540Z,4.17
2019-06-18T04:06:47.946Z,5.57
2019-06-18T04:09:18.412Z,4.40
2019-06-18T04:11:48.820Z,4.63
2019-06-18T04:14:19.269Z,4.60
2019-06-18T04:16:52.210Z,4.30
2019-06-18T04:19:22.666Z,4.70
2019-06-18T04:21:53.305Z,4.73
2019-06-18T04:24:23.978Z,4.83
2019-06-18T04:26:54.386Z,4.80
2019-06-18T04:29:24.951Z,4.83
2019-06-18T04:31:55.361Z,4.80
2019-06-18T04:34:25.960Z,4.50
2019-06-18T04:36:56.359Z,4.10
2019-06-18T04:39:26.904Z,4.70
2019-06-18T04:41:57.517Z,4.20
2019-06-18T04:44:27.953Z,4.00
2019-06-18T04:46:58.459Z,4.47
2019-06-18T04:49:28.864Z,4.60
2019-06-18T04:51:59.325Z,4.87
2019-06-18T04:54:32.274Z,4.73
2019-06-18T04:57:03.393Z,4.00
2019-06-18T04:59:34.090Z,4.57
2019-06-18T05:02:04.538Z,4.60
2019-06-18T05:04:34.989Z,4.07
2019-06-18T05:07:05.438Z,3.90
2019-06-18T05:09:35.852Z,4.07
2019-06-18T05:12:06.317Z,3.77
2019-06-18T05:14:36.758Z,3.10
2019-06-18T05:17:07.290Z,3.33
2019-06-18T05:19:37.680Z,3.00
2019-06-18T05:22:08.408Z,3.00
2019-06-18T05:24:38.798Z,3.13
2019-06-18T05:27:09.519Z,3.07
2019-06-18T05:29:42.600Z,3.00
2019-06-18T05:32:12.698Z,2.87
2019-06-18T05:34:43.441Z,3.10
2019-06-18T05:37:13.918Z,2.73
2019-06-18T05:39:44.644Z,2.20
2019-06-18T05:42:15.140Z,2.50
2019-06-18T05:44:45.569Z,3.40
2019-06-18T05:47:16.028Z,1.83
2019-06-18T05:49:46.536Z,2.20
2019-06-18T05:52:31.412Z,2.50
2019-06-18T05:54:49.196Z,2.30
2019-06-18T05:57:19.710Z,2.23
2019-06-18T05:59:52.590Z,2.20
2019-06-18T06:02:22.749Z,2.17
2019-06-18T06:04:53.553Z,2.23
2019-06-18T06:07:26.040Z,2.43
2019-06-18T06:09:56.306Z,4.37
2019-06-18T06:12:28.993Z,2.40
2019-06-18T06:15:03.101Z,2.80
2019-06-18T06:17:33.756Z,2.33
2019-06-18T06:20:04.552Z,2.90
2019-06-18T06:22:34.985Z,2.03
2019-06-18T06:25:06.972Z,1.73
2019-06-18T06:27:37.816Z,2.20
2019-06-18T06:30:12.680Z,2.80
2019-06-18T06:32:43.166Z,1.93
2019-06-18T06:35:14.832Z,2.13
2019-06-18T06:37:45.286Z,3.03
2019-06-18T06:40:17.327Z,2.17
2019-06-18T06:42:47.800Z,2.50
2019-06-18T06:45:18.416Z,2.60
2019-06-18T06:47:48.955Z,2.30
2019-06-18T06:50:19.434Z,2.30
2019-06-18T06:52:52.748Z,1.90
2019-06-18T06:55:24.016Z,2.23
2019-06-18T06:57:54.269Z,2.13
2019-06-18T07:00:25.087Z,2.80
2019-06-18T07:02:55.528Z,2.27
2019-06-18T07:05:26.089Z,2.27
2019-06-18T07:07:56.727Z,2.37
2019-06-18T07:10:27.247Z,2.53
2019-06-18T07:12:59.012Z,2.63
2019-06-18T07:15:29.498Z,2.83
2019-06-18T07:18:03.228Z,3.00
2019-06-18T07:20:34.222Z,2.73
2019-06-18T07:23:04.658Z,3.30
2019-06-18T07:25:35.364Z,2.57
2019-06-18T07:28:05.783Z,2.60
2019-06-18T07:30:36.501Z,2.73
2019-06-18T07:33:06.903Z,2.70
2019-06-18T07:35:37.588Z,3.07
2019-06-18T07:38:08.041Z,2.50
2019-06-18T07:40:38.730Z,2.70
2019-06-18T07:43:09.162Z,2.37
2019-06-18T07:45:40.078Z,4.57
2019-06-18T07:48:12.717Z,2.30
2019-06-18T07:50:44.243Z,3.03
2019-06-18T07:53:14.867Z,2.17
2019-06-18T07:55:45.482Z,2.73
2019-06-18T07:58:15.922Z,2.20
2019-06-18T08:00:46.375Z,2.60
2019-06-18T08:03:16.780Z,2.00
2019-06-18T08:05:47.312Z,2.20
2019-06-18T08:08:18.443Z,2.17
2019-06-18T08:10:48.957Z,2.60
2019-06-18T08:13:19.419Z,2.07
2019-06-18T08:15:52.510Z,2.10
2019-06-18T08:18:23.336Z,1.93
2019-06-18T08:20:53.856Z,1.90
2019-06-18T08:23:24.321Z,1.80
2019-06-18T08:25:54.814Z,1.80
2019-06-18T08:28:25.539Z,1.90
2019-06-18T08:30:56.679Z,1.80
2019-06-18T08:33:27.175Z,1.90
2019-06-18T08:35:57.628Z,1.77
2019-06-18T08:38:28.151Z,2.37
2019-06-18T08:40:58.721Z,2.20
2019-06-18T08:43:29.243Z,2.17
2019-06-18T08:45:59.654Z,2.50
2019-06-18T08:48:32.858Z,2.10
2019-06-18T08:51:02.452Z,2.33
2019-06-18T08:53:32.919Z,2.17
2019-06-18T08:56:03.421Z,2.10
2019-06-18T08:58:33.912Z,2.47
2019-06-18T09:01:04.564Z,2.00
2019-06-18T09:03:35.257Z,2.15
2019-06-18T09:06:05.874Z,1.77
2019-06-18T09:08:36.342Z,1.72
2019-06-18T09:11:06.973Z,2.05
2019-06-18T09:13:37.966Z,1.90
2019-06-18T09:16:08.648Z,2.10
2019-06-18T09:18:39.106Z,2.12
2019-06-18T09:21:09.645Z,1.77
2019-06-18T09:23:40.116Z,2.22
2019-06-18T09:26:13.186Z,2.22
2019-06-18T09:28:43.389Z,2.25
2019-06-18T09:31:14.162Z,2.00
2019-06-18T09:33:44.734Z,1.47
2019-06-18T09:36:17.186Z,1.95
2019-06-18T09:38:47.901Z,2.00
2019-06-18T09:41:18.387Z,1.55
2019-06-18T09:43:49.149Z,2.92
2019-06-18T09:46:19.545Z,2.12
2019-06-18T09:48:52.968Z,1.92
2019-06-18T09:51:26.192Z,1.80
2019-06-18T09:53:54.648Z,2.02
2019-06-18T09:56:25.101Z,1.35
2019-06-18T09:58:55.588Z,1.70
2019-06-18T10:01:26.006Z,2.47
2019-06-18T10:03:56.576Z,2.05
2019-06-18T10:06:27.169Z,1.75
2019-06-18T10:08:57.706Z,2.08
2019-06-18T10:11:28.152Z,1.50
2019-06-18T10:13:58.672Z,1.87
2019-06-18T10:16:29.110Z,2.20
2019-06-18T10:18:59.637Z,1.50
2019-06-18T10:21:37.714Z,1.87
2019-06-18T10:24:02.542Z,2.10
2019-06-18T10:26:33.038Z,1.95
2019-06-18T10:29:26.338Z,2.30
2019-06-18T10:31:37.280Z,1.90
2019-06-18T10:34:07.651Z,2.30
2019-06-18T10:36:38.124Z,2.17
2019-06-18T10:39:12.960Z,2.30
2019-06-18T10:41:44.562Z,2.23
2019-06-18T10:44:14.610Z,2.50
2019-06-18T10:46:45.041Z,2.40
2019-06-18T10:49:18.418Z,2.63
2019-06-18T10:51:56.312Z,2.60
2019-06-18T10:54:19.957Z,2.77
2019-06-18T10:56:50.443Z,2.60
2019-06-18T10:59:22.509Z,2.47
2019-06-18T11:01:53.256Z,2.40
2019-06-18T11:04:23.647Z,2.80
2019-06-18T11:06:54.137Z,2.13
2019-06-18T11:09:24.616Z,2.30
2019-06-18T11:11:55.477Z,2.23
2019-06-18T11:14:25.911Z,3.30
2019-06-18T11:16:56.886Z,2.43
2019-06-18T11:19:27.443Z,3.07
2019-06-18T11:22:10.197Z,2.80
2019-06-18T11:24:30.170Z,2.40
2019-06-18T11:27:03.596Z,2.37
2019-06-18T11:29:33.197Z,3.17
2019-06-18T11:32:03.718Z,2.80
2019-06-18T11:34:34.141Z,3.63
2019-06-18T11:37:04.866Z,2.33
2019-06-18T11:39:35.599Z,2.17
2019-06-18T11:42:06.196Z,3.00
2019-06-18T11:44:36.755Z,2.60
2019-06-18T11:47:07.243Z,2.03
2019-06-18T11:49:37.682Z,2.13
2019-06-18T11:52:08.122Z,2.40
2019-06-18T11:54:38.675Z,2.60
2019-06-18T11:57:09.147Z,2.37
2019-06-18T11:59:42.512Z,2.40
2019-06-18T12:02:12.810Z,3.00
2019-06-18T12:04:43.465Z,3.00
2019-06-18T12:07:14.044Z,3.27
2019-06-18T12:09:44.564Z,2.93
2019-06-18T12:12:15.022Z,2.33
2019-06-18T12:14:46.066Z,2.73
2019-06-18T12:17:16.513Z,3.20
2019-06-18T12:19:47.003Z,2.80
2019-06-18T12:22:17.501Z,3.00
2019-06-18T12:24:48.249Z,3.00
2019-06-18T12:27:18.717Z,2.67
2019-06-18T12:29:49.216Z,2.73
2019-06-18T12:32:19.836Z,2.80
2019-06-18T12:34:50.544Z,2.57
2019-06-18T12:37:22.660Z,2.90
2019-06-18T12:39:53.531Z,3.27
2019-06-18T12:42:24.229Z,2.67
2019-06-18T12:44:55.054Z,3.00
2019-06-18T12:47:25.468Z,3.03
2019-06-18T12:49:55.944Z,3.10
2019-06-18T12:52:26.347Z,3.30
2019-06-18T12:54:56.886Z,2.80
2019-06-18T12:57:27.281Z,2.60
2019-06-18T12:59:57.785Z,2.40
2019-06-18T13:02:28.245Z,2.63
2019-06-18T13:04:58.781Z,2.67
2019-06-18T13:07:29.238Z,2.47
2019-06-18T13:09:59.673Z,2.60
2019-06-18T13:12:33.083Z,2.57
2019-06-18T13:15:02.466Z,2.70
2019-06-18T13:17:33.449Z,2.57
2019-06-18T13:20:04.808Z,2.73
2019-06-18T13:22:35.401Z,2.90
2019-06-18T13:25:06.485Z,3.10
2019-06-18T13:27:37.025Z,2.70
2019-06-18T13:30:09.855Z,3.13
2019-06-18T13:32:42.436Z,2.70
2019-06-18T13:35:16.363Z,2.70
2019-06-18T13:37:45.090Z,2.77
2019-06-18T13:40:15.800Z,2.67
2019-06-18T13:42:46.341Z,2.80
2019-06-18T13:45:17.316Z,2.20
2019-06-18T13:47:47.948Z,3.10
2019-06-18T13:50:18.650Z,3.00
2019-06-18T13:52:49.220Z,2.23
2019-06-18T13:55:19.640Z,2.40
2019-06-18T13:57:53.251Z,2.50
2019-06-18T14:00:24.039Z,2.43
2019-06-18T14:02:55.446Z,2.53
2019-06-18T14:05:25.905Z,2.67
2019-06-18T14:07:56.424Z,2.70
2019-06-18T14:10:26.846Z,2.30
2019-06-18T14:12:57.398Z,2.87
2019-06-18T14:15:27.988Z,2.80
2019-06-18T14:17:58.515Z,2.17
2019-06-18T14:20:28.948Z,2.87
2019-06-18T14:22:59.592Z,2.87
2019-06-18T14:25:32.686Z,2.77
2019-06-18T14:28:03.025Z,2.50
2019-06-18T14:30:33.663Z,2.43
2019-06-18T14:33:04.109Z,2.57
2019-06-18T14:35:34.879Z,2.23
2019-06-18T14:38:05.417Z,2.53
2019-06-18T14:40:37.629Z,3.17
2019-06-18T14:43:08.307Z,2.60
2019-06-18T14:45:39.131Z,2.67
2019-06-18T14:48:12.250Z,2.43
2019-06-18T14:50:42.965Z,2.97
2019-06-18T14:53:14.066Z,2.20
2019-06-18T14:55:44.585Z,2.30
2019-06-18T14:58:15.018Z,2.23
2019-06-18T15:00:45.719Z,2.30
2019-06-18T15:03:16.181Z,2.20
2019-06-18T15:05:46.673Z,1.93
2019-06-18T15:08:17.325Z,2.40
2019-06-18T15:10:48.027Z,2.30
2019-06-18T15:13:18.972Z,2.87
2019-06-18T15:15:49.497Z,2.13
2019-06-18T15:18:20.232Z,2.20
2019-06-18T15:20:52.725Z,2.10
2019-06-18T15:23:23.666Z,2.10
2019-06-18T15:26:03.959Z,2.33
2019-06-18T15:28:26.358Z,2.40
2019-06-18T15:30:57.281Z,2.50
2019-06-18T15:33:27.877Z,2.10
2019-06-18T15:35:58.345Z,2.50
2019-06-18T15:38:28.795Z,2.23
2019-06-18T15:41:02.997Z,2.60
2019-06-18T15:43:33.567Z,2.63
2019-06-18T15:46:04.096Z,2.43
2019-06-18T15:48:34.808Z,2.40
2019-06-18T15:51:05.415Z,2.70
2019-06-18T15:53:35.937Z,2.27
2019-06-18T15:56:06.452Z,2.37
2019-06-18T15:58:36.916Z,2.33
2019-06-18T16:01:13.197Z,1.90
2019-06-18T16:03:39.617Z,2.40
2019-06-18T16:06:10.164Z,2.00
2019-06-18T16:08:42.892Z,2.20
2019-06-18T16:11:12.949Z,2.40
2019-06-18T16:13:43.667Z,2.70
2019-06-18T16:16:14.265Z,2.17
2019-06-18T16:18:44.779Z,2.50
2019-06-18T16:21:16.566Z,2.63
2019-06-18T16:23:47.245Z,1.90
2019-06-18T16:26:17.993Z,2.20
2019-06-18T16:28:49.345Z,2.10
2019-06-18T16:31:19.787Z,2.23
2019-06-18T16:33:52.997Z,2.30
2019-06-18T16:36:23.655Z,2.50
2019-06-18T16:38:54.199Z,3.17
2019-06-18T16:41:24.946Z,2.40
2019-06-18T16:43:55.510Z,2.70
2019-06-18T16:46:26.048Z,2.13
2019-06-18T16:48:56.788Z,2.33
2019-06-18T16:51:27.410Z,2.60
2019-06-18T16:53:58.104Z,2.23
2019-06-18T16:56:28.823Z,2.43
2019-06-18T16:59:02.336Z,2.57
2019-06-18T17:01:33.417Z,2.70
2019-06-18T17:04:04.063Z,3.10
2019-06-18T17:06:34.582Z,3.07
2019-06-18T17:09:08.031Z,2.87
2019-06-18T17:11:38.523Z,3.00
2019-06-18T17:14:08.996Z,2.80
2019-06-18T17:16:41.845Z,3.20
2019-06-18T17:19:12.863Z,2.63
2019-06-18T17:21:43.617Z,3.23
2019-06-18T17:24:14.129Z,2.30
2019-06-18T17:26:48.441Z,2.63
2019-06-18T17:29:17.138Z,2.50
2019-06-18T17:31:48.343Z,2.70
2019-06-18T17:34:19.296Z,3.30
2019-06-18T17:36:49.810Z,2.90
2019-06-18T17:39:22.281Z,2.63
2019-06-18T17:41:52.913Z,2.67
2019-06-18T17:44:23.502Z,2.77
2019-06-18T17:46:54.165Z,3.10
2019-06-18T17:49:25.095Z,3.20
2019-06-18T17:51:55.584Z,3.20
2019-06-18T17:54:26.159Z,2.83
2019-06-18T17:56:56.625Z,3.43
2019-06-18T17:59:27.283Z,3.10
2019-06-18T18:01:57.921Z,2.50
2019-06-18T18:04:33.021Z,3.50
2019-06-18T18:07:03.022Z,3.13
2019-06-18T18:09:33.799Z,2.93
2019-06-18T18:12:04.230Z,3.00
2019-06-18T18:14:34.783Z,3.20
2019-06-18T18:17:16.822Z,2.97
2019-06-18T18:19:37.755Z,3.43
2019-06-18T18:22:08.501Z,2.90
2019-06-18T18:24:39.217Z,2.90
2019-06-18T18:27:10.022Z,3.30
2019-06-18T18:29:42.115Z,3.60
2019-06-18T18:32:13.171Z,3.50
2019-06-18T18:34:43.872Z,3.00
2019-06-18T18:37:14.668Z,2.50
2019-06-18T18:39:45.353Z,3.07
2019-06-18T18:42:15.894Z,3.10
2019-06-18T18:44:46.706Z,3.40
2019-06-18T18:47:17.237Z,3.73
2019-06-18T18:49:47.799Z,3.80
2019-06-18T18:52:18.295Z,2.63
2019-06-18T18:54:49.300Z,4.27
2019-06-18T18:57:22.847Z,3.70
2019-06-18T19:00:00.197Z,3.30
2019-06-18T19:02:29.109Z,3.53
2019-06-18T19:04:59.812Z,3.73
2019-06-18T19:07:33.231Z,3.87
2019-06-18T19:10:03.742Z,3.13
2019-06-18T19:12:34.422Z,3.10
2019-06-18T19:15:05.714Z,3.57
2019-06-18T19:17:36.311Z,3.27
2019-06-18T19:20:13.491Z,3.37
2019-06-18T19:22:44.240Z,3.33
2019-06-18T19:25:16.174Z,3.60
2019-06-18T19:27:46.766Z,3.60
2019-06-18T19:30:18.151Z,3.70
2019-06-18T19:32:48.863Z,3.10
2019-06-18T19:35:19.494Z,3.63
2019-06-18T19:37:50.005Z,3.20
2019-06-18T19:40:22.688Z,3.57
2019-06-18T19:42:53.352Z,3.77
2019-06-18T19:45:24.146Z,3.60
2019-06-18T19:47:54.686Z,3.03
2019-06-18T19:50:25.454Z,3.47
2019-06-18T19:52:56.264Z,3.60
2019-06-18T19:55:27.002Z,3.27
2019-06-18T19:57:57.691Z,3.60
2019-06-18T20:00:28.449Z,3.30
2019-06-18T20:02:59.168Z,4.10
2019-06-18T20:05:29.719Z,3.40
2019-06-18T20:08:03.022Z,3.13
2019-06-18T20:10:33.065Z,3.30
2019-06-18T20:13:04.558Z,3.70
2019-06-18T20:15:35.095Z,3.17
2019-06-18T20:18:05.531Z,3.50
2019-06-18T20:20:36.189Z,3.27
2019-06-18T20:23:06.702Z,3.43
2019-06-18T20:25:37.237Z,3.33
2019-06-18T20:28:07.653Z,3.47
2019-06-18T20:30:38.361Z,3.37
2019-06-18T20:33:09.024Z,3.73
2019-06-18T20:35:39.727Z,3.70
2019-06-18T20:38:12.961Z,4.07
2019-06-18T20:40:43.237Z,3.37
2019-06-18T20:43:13.905Z,3.00
2019-06-18T20:45:44.389Z,3.70
2019-06-18T20:48:15.065Z,3.50
2019-06-18T20:50:45.616Z,3.03
2019-06-18T20:53:16.166Z,3.20
2019-06-18T20:55:46.678Z,3.37
2019-06-18T20:58:17.138Z,3.43
2019-06-18T21:00:47.831Z,3.17
2019-06-18T21:03:18.258Z,3.60
2019-06-18T21:05:48.786Z,3.73
2019-06-18T21:08:19.237Z,3.43
2019-06-18T21:10:49.712Z,3.30
2019-06-18T21:13:22.581Z,3.40
2019-06-18T21:15:52.760Z,3.53
2019-06-18T21:18:23.570Z,3.80
2019-06-18T21:20:54.136Z,3.73
2019-06-18T21:23:24.587Z,2.80
2019-06-18T21:25:55.305Z,3.20
2019-06-18T21:28:26.504Z,3.43
2019-06-18T21:30:57.176Z,3.13
2019-06-18T21:33:27.736Z,4.03
2019-06-18T21:36:00.249Z,3.70
2019-06-18T21:38:30.673Z,3.30
2019-06-18T21:41:02.947Z,3.40
2019-06-18T21:43:33.985Z,3.20
2019-06-18T21:46:05.397Z,2.93
2019-06-18T21:48:35.961Z,3.27
2019-06-18T21:51:06.538Z,3.33
2019-06-18T21:53:37.021Z,3.53
2019-06-18T21:56:07.842Z,3.10
2019-06-18T21:58:38.365Z,3.27
2019-06-18T22:01:12.265Z,3.67
2019-06-18T22:03:42.688Z,3.10
2019-06-18T22:06:13.371Z,3.30
2019-06-18T22:08:43.891Z,3.53
2019-06-18T22:11:14.333Z,3.00
2019-06-18T22:13:44.883Z,2.80
2019-06-18T22:16:15.499Z,3.20
2019-06-18T22:18:46.125Z,2.80
2019-06-18T22:21:18.464Z,3.40
2019-06-18T22:23:49.230Z,2.60
2019-06-18T22:26:23.143Z,2.80
2019-06-18T22:28:53.323Z,3.40
2019-06-18T22:31:23.958Z,3.30
2019-06-18T22:33:54.476Z,3.30
2019-06-18T22:36:24.917Z,3.10
2019-06-18T22:38:55.617Z,4.00
2019-06-18T22:41:26.072Z,3.27
2019-06-18T22:43:56.528Z,2.87
2019-06-18T22:46:26.990Z,3.57
2019-06-18T22:48:57.511Z,3.60
2019-06-18T22:51:28.041Z,2.90
2019-06-18T22:53:58.676Z,3.47
2019-06-18T22:56:29.096Z,3.73
2019-06-18T22:58:59.603Z,3.13
2019-06-18T23:01:30.074Z,3.63
2019-06-18T23:04:02.413Z,3.80
2019-06-18T23:06:33.460Z,3.80
2019-06-18T23:09:04.921Z,3.60
2019-06-18T23:11:35.325Z,3.13
2019-06-18T23:14:05.969Z,3.80
2019-06-18T23:16:36.404Z,3.87
2019-06-18T23:19:06.857Z,3.50
2019-06-18T23:21:37.509Z,3.70
2019-06-18T23:24:07.981Z,3.50
2019-06-18T23:26:38.655Z,3.97
2019-06-18T23:29:10.879Z,3.30
2019-06-18T23:31:43.042Z,3.83
2019-06-18T23:34:13.708Z,5.50
2019-06-18T23:36:44.378Z,3.40
2019-06-18T23:39:14.863Z,4.20
2019-06-18T23:41:45.281Z,3.63
2019-06-18T23:44:15.912Z,4.37
2019-06-18T23:46:46.814Z,4.07
2019-06-18T23:49:17.414Z,3.73
2019-06-18T23:51:47.863Z,4.20
2019-06-18T23:54:18.460Z,3.70
2019-06-18T23:56:48.899Z,4.13
2019-06-18T23:59:23.178Z,3.50
